createdAt,value
2019-03-03T00:02:15.612Z,7.40
2019-03-03T00:04:45.291Z,7.30
2019-03-03T00:07:14.994Z,7.90
2019-03-03T00:09:44.625Z,7.90
2019-03-03T00:12:14.252Z,5.80
2019-03-03T00:14:43.922Z,7.33
2019-03-03T00:17:13.530Z,7.43
2019-03-03T00:19:43.162Z,7.43
2019-03-03T00:22:12.817Z,6.33
2019-03-03T00:24:42.455Z,7.13
2019-03-03T00:27:12.195Z,7.00
2019-03-03T00:29:41.838Z,7.00
2019-03-03T00:32:11.525Z,7.17
2019-03-03T00:34:41.181Z,7.40
2019-03-03T00:37:17.507Z,6.70
2019-03-03T00:39:55.392Z,6.23
2019-03-03T00:42:33.362Z,6.00
2019-03-03T00:45:09.226Z,6.30
2019-03-03T00:47:44.349Z,5.97
2019-03-03T00:50:20.223Z,5.93
2019-03-03T00:52:55.006Z,6.40
2019-03-03T00:55:55.252Z,6.87
2019-03-03T00:58:30.241Z,6.80
2019-03-03T01:01:04.160Z,7.10
2019-03-03T01:03:38.167Z,6.33
2019-03-03T01:06:18.026Z,6.80
2019-03-03T01:08:56.036Z,5.97
2019-03-03T01:11:30.689Z,6.23
2019-03-03T01:14:10.989Z,7.27
2019-03-03T01:16:50.197Z,5.87
2019-03-03T01:20:26.253Z,6.87
2019-03-03T01:23:03.223Z,6.33
2019-03-03T01:25:33.050Z,6.40
2019-03-03T01:28:02.657Z,7.10
2019-03-03T01:30:32.277Z,7.13
2019-03-03T01:33:01.943Z,6.73
2019-03-03T01:35:31.592Z,7.67
2019-03-03T01:38:01.185Z,7.50
2019-03-03T01:40:32.033Z,7.70
2019-03-03T01:43:01.629Z,7.57
2019-03-03T01:45:31.269Z,7.50
2019-03-03T01:48:00.888Z,8.00
2019-03-03T01:50:32.927Z,7.93
2019-03-03T01:53:02.539Z,7.77
2019-03-03T01:55:32.162Z,7.63
2019-03-03T01:58:01.817Z,8.10
2019-03-03T02:00:31.495Z,7.63
2019-03-03T02:03:01.102Z,8.43
2019-03-03T02:05:31.991Z,7.40
2019-03-03T02:08:01.622Z,7.43
2019-03-03T02:10:31.255Z,8.07
2019-03-03T02:13:00.895Z,7.60
2019-03-03T02:15:30.518Z,8.60
2019-03-03T02:18:02.687Z,8.17
2019-03-03T02:20:33.618Z,8.20
2019-03-03T02:23:04.403Z,8.00
2019-03-03T02:25:34.082Z,8.73
2019-03-03T02:28:03.735Z,7.83
2019-03-03T02:30:33.359Z,7.60
2019-03-03T02:33:02.990Z,8.10
2019-03-03T02:35:32.633Z,8.37
2019-03-03T02:38:02.247Z,7.40
2019-03-03T02:40:34.371Z,8.60
2019-03-03T02:43:03.969Z,6.77
2019-03-03T02:45:33.578Z,7.87
2019-03-03T02:48:03.320Z,7.73
2019-03-03T02:50:32.958Z,8.13
2019-03-03T02:53:02.585Z,7.47
2019-03-03T02:55:33.550Z,7.87
2019-03-03T02:58:03.181Z,7.37
2019-03-03T03:00:32.833Z,7.63
2019-03-03T03:03:05.467Z,7.60
2019-03-03T03:06:13.766Z,7.37
2019-03-03T03:09:19.132Z,7.63
2019-03-03T03:11:53.019Z,7.47
2019-03-03T03:14:27.920Z,8.07
2019-03-03T03:17:06.024Z,7.60
2019-03-03T03:19:43.106Z,7.17
2019-03-03T03:22:48.213Z,7.53
2019-03-03T03:26:24.110Z,8.30
2019-03-03T03:28:59.217Z,7.63
2019-03-03T03:31:35.161Z,7.73
2019-03-03T03:34:10.879Z,7.87
2019-03-03T03:36:47.817Z,8.13
2019-03-03T03:39:23.554Z,8.27
2019-03-03T03:41:57.441Z,9.20
2019-03-03T03:44:32.471Z,8.77
2019-03-03T03:47:07.236Z,9.77
2019-03-03T03:49:45.975Z,8.90
2019-03-03T03:52:21.224Z,9.90
2019-03-03T03:54:57.111Z,9.33
2019-03-03T03:57:30.978Z,10.10
2019-03-03T04:00:08.979Z,10.77
2019-03-03T04:02:46.307Z,9.30
2019-03-03T04:05:21.441Z,10.70
2019-03-03T04:08:07.326Z,10.90
2019-03-03T04:10:41.215Z,10.33
2019-03-03T04:13:18.952Z,10.73
2019-03-03T04:15:57.858Z,10.33
2019-03-03T04:18:32.578Z,10.43
2019-03-03T04:21:06.478Z,12.13
2019-03-03T04:23:58.381Z,11.03
2019-03-03T04:26:33.466Z,11.23
2019-03-03T04:29:17.432Z,11.87
2019-03-03T04:32:07.101Z,12.30
2019-03-03T04:34:40.946Z,12.10
2019-03-03T04:37:46.110Z,12.03
2019-03-03T04:40:26.904Z,10.87
2019-03-03T04:43:01.682Z,12.00
2019-03-03T04:45:39.499Z,12.87
2019-03-03T04:48:14.245Z,12.40
2019-03-03T04:51:50.290Z,12.17
2019-03-03T04:54:26.057Z,12.10
2019-03-03T04:59:08.383Z,12.60
2019-03-03T05:01:43.121Z,12.03
2019-03-03T05:04:18.127Z,13.40
2019-03-03T05:06:52.010Z,13.50
2019-03-03T05:09:26.795Z,12.43
2019-03-03T05:13:11.891Z,12.17
2019-03-03T05:16:46.702Z,11.00
2019-03-03T05:19:26.545Z,11.90
2019-03-03T05:21:56.209Z,13.20
2019-03-03T05:24:33.866Z,12.93
2019-03-03T05:26:55.479Z,13.23
2019-03-03T05:29:25.133Z,11.70
2019-03-03T05:31:54.759Z,13.70
2019-03-03T05:34:24.419Z,12.30
2019-03-03T05:36:54.070Z,12.37
2019-03-03T05:39:23.667Z,12.70
2019-03-03T05:41:53.313Z,12.80
2019-03-03T05:44:22.975Z,12.10
2019-03-03T05:46:52.578Z,12.80
2019-03-03T05:49:22.218Z,12.27
2019-03-03T05:51:51.903Z,12.07
2019-03-03T05:54:21.525Z,14.10
2019-03-03T05:56:51.137Z,13.10
2019-03-03T05:59:20.807Z,12.60
2019-03-03T06:01:50.453Z,14.00
2019-03-03T06:04:20.082Z,12.80
2019-03-03T06:06:50.016Z,12.43
2019-03-03T06:09:19.718Z,13.37
2019-03-03T06:11:49.329Z,14.77
2019-03-03T06:14:18.979Z,14.73
2019-03-03T06:16:48.604Z,14.57
2019-03-03T06:19:18.238Z,14.27
2019-03-03T06:21:47.858Z,14.10
2019-03-03T06:24:18.762Z,15.43
2019-03-03T06:26:48.366Z,14.50
2019-03-03T06:29:18.017Z,14.87
2019-03-03T06:31:48.646Z,14.57
2019-03-03T06:34:18.286Z,15.07
2019-03-03T06:36:48.102Z,14.50
2019-03-03T06:39:18.911Z,15.43
2019-03-03T06:41:48.558Z,14.30
2019-03-03T06:44:18.178Z,15.63
2019-03-03T06:46:49.022Z,15.27
2019-03-03T06:49:18.630Z,14.23
2019-03-03T06:51:48.241Z,16.63
2019-03-03T06:54:17.916Z,15.83
2019-03-03T06:56:47.526Z,17.40
2019-03-03T06:59:17.149Z,16.13
2019-03-03T07:01:48.090Z,16.03
2019-03-03T07:04:17.713Z,16.40
2019-03-03T07:06:47.324Z,16.60
2019-03-03T07:09:19.361Z,16.10
2019-03-03T07:11:49.041Z,16.87
2019-03-03T07:14:18.664Z,16.30
2019-03-03T07:16:48.343Z,16.57
2019-03-03T07:19:17.962Z,15.67
2019-03-03T07:21:47.610Z,15.83
2019-03-03T07:24:18.439Z,15.53
2019-03-03T07:26:49.171Z,19.07
2019-03-03T07:29:18.858Z,16.87
2019-03-03T07:31:48.473Z,15.30
2019-03-03T07:34:20.451Z,16.13
2019-03-03T07:36:50.186Z,15.53
2019-03-03T07:39:19.946Z,14.90
2019-03-03T07:41:49.578Z,15.80
2019-03-03T07:44:19.205Z,15.10
2019-03-03T07:46:48.892Z,16.33
2019-03-03T07:49:18.589Z,15.53
2019-03-03T07:51:50.884Z,15.43
2019-03-03T07:54:20.482Z,15.10
2019-03-03T07:56:50.109Z,15.53
2019-03-03T07:59:19.747Z,15.73
2019-03-03T08:01:49.358Z,14.73
2019-03-03T08:04:19.097Z,15.13
2019-03-03T08:06:48.700Z,14.50
2019-03-03T08:09:18.302Z,14.90
2019-03-03T08:11:50.407Z,16.50
2019-03-03T08:14:20.022Z,14.87
2019-03-03T08:16:49.687Z,13.93
2019-03-03T08:19:19.315Z,15.10
2019-03-03T08:21:50.264Z,15.70
2019-03-03T08:24:19.870Z,16.40
2019-03-03T08:26:50.846Z,16.90
2019-03-03T08:29:20.456Z,16.83
2019-03-03T08:31:50.090Z,16.30
2019-03-03T08:34:19.736Z,16.50
2019-03-03T08:36:49.626Z,15.90
2019-03-03T08:39:21.770Z,17.33
2019-03-03T08:41:55.952Z,17.70
2019-03-03T08:44:33.370Z,18.37
2019-03-03T08:47:07.263Z,17.93
2019-03-03T08:49:43.143Z,18.10
2019-03-03T08:52:20.024Z,18.77
2019-03-03T08:54:58.448Z,19.07
2019-03-03T08:57:30.228Z,18.90
2019-03-03T09:00:06.022Z,18.27
2019-03-03T09:02:41.248Z,18.43
2019-03-03T09:05:21.337Z,18.00
2019-03-03T09:07:59.569Z,17.43
2019-03-03T09:10:48.484Z,18.43
2019-03-03T09:13:22.377Z,18.73
2019-03-03T09:15:59.171Z,18.03
2019-03-03T09:18:38.087Z,17.77
2019-03-03T09:21:13.314Z,17.10
2019-03-03T09:23:53.108Z,18.17
2019-03-03T09:26:29.406Z,16.90
2019-03-03T09:30:04.116Z,17.60
2019-03-03T09:32:42.183Z,16.77
2019-03-03T09:38:46.017Z,18.93
2019-03-03T09:41:21.012Z,18.80
2019-03-03T09:43:57.958Z,17.80
2019-03-03T09:46:37.127Z,18.97
2019-03-03T09:49:12.222Z,18.07
2019-03-03T09:51:55.215Z,17.60
2019-03-03T09:54:37.604Z,18.40
2019-03-03T09:57:29.803Z,17.73
2019-03-03T10:00:06.827Z,17.77
2019-03-03T10:04:46.805Z,19.13
2019-03-03T10:07:25.751Z,18.03
2019-03-03T10:10:02.610Z,18.47
2019-03-03T10:12:39.556Z,20.83
2019-03-03T10:15:16.671Z,17.80
2019-03-03T10:19:06.760Z,20.17
2019-03-03T10:21:34.085Z,19.50
2019-03-03T10:24:12.068Z,19.00
2019-03-03T10:27:49.723Z,18.67
2019-03-03T10:30:34.563Z,18.57
2019-03-03T10:33:17.869Z,21.23
2019-03-03T10:35:52.943Z,21.23
2019-03-03T10:38:35.935Z,22.47
2019-03-03T10:41:05.506Z,22.43
2019-03-03T10:43:41.266Z,20.87
2019-03-03T10:46:19.106Z,21.93
2019-03-03T10:48:55.232Z,21.73
2019-03-03T10:51:29.150Z,22.20
2019-03-03T10:54:04.308Z,22.17
2019-03-03T10:56:40.635Z,19.90
2019-03-03T10:59:15.791Z,20.50
2019-03-03T11:01:51.856Z,21.13
2019-03-03T11:04:25.834Z,19.60
2019-03-03T11:07:00.994Z,19.30
2019-03-03T11:09:41.246Z,21.33
2019-03-03T11:12:16.284Z,20.60
2019-03-03T11:14:55.216Z,18.80
2019-03-03T11:17:32.379Z,18.63
2019-03-03T11:20:06.258Z,19.50
2019-03-03T11:24:48.132Z,19.87
2019-03-03T11:27:27.976Z,18.47
2019-03-03T11:30:08.895Z,18.30
2019-03-03T11:32:45.917Z,18.47
2019-03-03T11:37:32.524Z,19.40
2019-03-03T11:40:16.270Z,17.87
2019-03-03T11:42:50.994Z,17.57
2019-03-03T11:45:30.126Z,17.63
2019-03-03T11:48:15.118Z,17.40
2019-03-03T11:50:52.579Z,16.00
2019-03-03T11:54:01.929Z,17.93
2019-03-03T11:56:38.994Z,17.80
2019-03-03T11:59:15.955Z,17.03
2019-03-03T12:01:55.250Z,17.90
2019-03-03T12:04:32.382Z,17.93
2019-03-03T12:09:10.280Z,16.27
2019-03-03T12:11:45.316Z,16.53
2019-03-03T12:14:50.926Z,15.10
2019-03-03T12:17:26.658Z,16.20
2019-03-03T12:20:16.422Z,14.00
2019-03-03T12:23:49.322Z,14.13
2019-03-03T12:27:00.579Z,13.20
2019-03-03T12:29:38.534Z,14.40
2019-03-03T12:32:27.519Z,13.53
2019-03-03T12:35:08.450Z,13.10
2019-03-03T12:37:49.345Z,11.90
2019-03-03T12:40:26.917Z,11.73
2019-03-03T12:43:35.803Z,10.67
2019-03-03T12:46:41.299Z,9.73
2019-03-03T12:49:17.539Z,10.00
2019-03-03T12:51:54.486Z,10.70
2019-03-03T12:54:36.411Z,10.37
2019-03-03T12:57:12.274Z,10.80
2019-03-03T12:59:46.235Z,10.93
2019-03-03T13:02:21.940Z,10.43
2019-03-03T13:04:57.877Z,10.33
2019-03-03T13:07:48.982Z,9.37
2019-03-03T13:10:22.849Z,9.20
2019-03-03T13:13:01.790Z,9.50
2019-03-03T13:15:39.270Z,8.80
2019-03-03T13:18:13.222Z,8.77
2019-03-03T13:21:49.594Z,8.67
2019-03-03T13:24:25.540Z,7.90
2019-03-03T13:27:00.773Z,8.40
2019-03-03T13:29:36.569Z,8.10
2019-03-03T13:32:12.466Z,8.37
2019-03-03T13:34:51.340Z,7.40
2019-03-03T13:37:31.356Z,8.10
2019-03-03T13:40:05.217Z,7.87
2019-03-03T13:42:41.704Z,6.70
2019-03-03T13:45:10.723Z,7.47
2019-03-03T13:47:40.420Z,7.10
2019-03-03T13:50:12.347Z,6.30
2019-03-03T13:52:43.430Z,7.07
2019-03-03T13:55:14.605Z,7.50
2019-03-03T13:57:44.249Z,6.50
2019-03-03T14:00:15.744Z,7.40
2019-03-03T14:02:45.394Z,5.43
2019-03-03T14:05:18.091Z,6.30
2019-03-03T14:07:47.774Z,6.07
2019-03-03T14:10:18.799Z,6.90
2019-03-03T14:12:48.515Z,7.00
2019-03-03T14:15:19.349Z,5.53
2019-03-03T14:17:49.113Z,6.50
2019-03-03T14:20:20.327Z,7.10
2019-03-03T14:22:51.683Z,5.73
2019-03-03T14:25:21.349Z,6.37
2019-03-03T14:27:51.126Z,6.30
2019-03-03T14:30:23.434Z,6.50
2019-03-03T14:32:53.119Z,5.40
2019-03-03T14:35:22.816Z,6.43
2019-03-03T14:37:55.095Z,6.50
2019-03-03T14:40:24.729Z,6.63
2019-03-03T14:42:57.004Z,5.43
2019-03-03T14:45:26.689Z,6.50
2019-03-03T14:47:56.311Z,6.23
2019-03-03T14:50:25.969Z,4.70
2019-03-03T14:52:55.763Z,5.70
2019-03-03T14:55:27.967Z,6.67
2019-03-03T14:57:58.859Z,6.13
2019-03-03T15:00:31.777Z,6.97
2019-03-03T15:03:03.103Z,7.43
2019-03-03T15:05:32.819Z,7.27
2019-03-03T15:08:02.670Z,7.50
2019-03-03T15:10:32.313Z,7.23
2019-03-03T15:13:01.987Z,5.83
2019-03-03T15:15:33.638Z,6.47
2019-03-03T15:18:03.318Z,7.00
2019-03-03T15:20:33.025Z,6.80
2019-03-03T15:23:02.704Z,6.00
2019-03-03T15:25:32.415Z,5.80
2019-03-03T15:28:02.054Z,6.43
2019-03-03T15:30:32.961Z,5.97
2019-03-03T15:33:02.596Z,6.77
2019-03-03T15:35:32.327Z,6.63
2019-03-03T15:38:02.056Z,6.47
2019-03-03T15:40:32.443Z,6.13
2019-03-03T15:43:04.691Z,6.40
2019-03-03T15:45:34.462Z,7.30
2019-03-03T15:48:04.233Z,6.33
2019-03-03T15:50:35.245Z,6.43
2019-03-03T15:53:04.880Z,5.53
2019-03-03T15:55:34.550Z,5.47
2019-03-03T15:58:05.482Z,5.57
2019-03-03T16:00:35.151Z,4.83
2019-03-03T16:03:04.898Z,6.00
2019-03-03T16:05:34.557Z,4.60
2019-03-03T16:08:05.544Z,5.10
2019-03-03T16:10:35.192Z,4.77
2019-03-03T16:13:04.866Z,4.00
2019-03-03T16:15:36.244Z,4.53
2019-03-03T16:18:10.074Z,4.20
2019-03-03T16:20:40.967Z,5.60
2019-03-03T16:23:11.523Z,4.60
2019-03-03T16:25:41.173Z,5.70
2019-03-03T16:28:12.014Z,4.40
2019-03-03T16:30:42.863Z,4.40
2019-03-03T16:33:20.118Z,4.10
2019-03-03T16:35:42.243Z,6.37
2019-03-03T16:38:11.890Z,6.53
2019-03-03T16:40:41.554Z,4.23
2019-03-03T16:43:11.465Z,4.20
2019-03-03T16:45:41.114Z,4.73
2019-03-03T16:48:11.599Z,4.70
2019-03-03T16:50:41.230Z,5.40
2019-03-03T16:53:12.096Z,5.80
2019-03-03T16:55:41.755Z,4.93
2019-03-03T16:58:11.381Z,5.10
2019-03-03T17:00:42.266Z,5.10
2019-03-03T17:03:13.143Z,4.57
2019-03-03T17:05:45.251Z,4.90
2019-03-03T17:08:14.887Z,5.17
2019-03-03T17:10:44.531Z,4.40
2019-03-03T17:13:15.412Z,4.10
2019-03-03T17:15:46.247Z,4.40
2019-03-03T17:18:15.894Z,3.90
2019-03-03T17:20:45.527Z,4.77
2019-03-03T17:23:15.282Z,4.97
2019-03-03T17:25:44.892Z,5.30
2019-03-03T17:28:14.531Z,4.40
2019-03-03T17:30:44.226Z,4.27
2019-03-03T17:33:14.460Z,3.93
2019-03-03T17:35:44.078Z,4.53
2019-03-03T17:38:15.063Z,4.73
2019-03-03T17:40:46.336Z,8.73
2019-03-03T17:43:17.192Z,4.27
2019-03-03T17:45:46.851Z,4.50
2019-03-03T17:48:16.516Z,4.93
2019-03-03T17:50:46.230Z,4.27
2019-03-03T17:53:17.213Z,6.67
2019-03-03T17:55:46.881Z,5.87
2019-03-03T17:58:16.493Z,5.40
2019-03-03T18:00:50.430Z,5.10
2019-03-03T18:03:20.074Z,4.40
2019-03-03T18:05:50.346Z,4.50
2019-03-03T18:08:19.974Z,4.27
2019-03-03T18:10:49.651Z,5.63
2019-03-03T18:13:19.264Z,4.37
2019-03-03T18:15:49.180Z,10.03
2019-03-03T18:18:19.999Z,9.73
2019-03-03T18:20:49.694Z,6.50
2019-03-03T18:23:19.309Z,3.93
2019-03-03T18:25:49.005Z,12.67
2019-03-03T18:28:18.649Z,5.07
2019-03-03T18:30:48.246Z,6.60
2019-03-03T18:33:20.202Z,4.40
2019-03-03T18:35:49.881Z,5.00
2019-03-03T18:38:19.507Z,4.30
2019-03-03T18:40:49.138Z,4.47
2019-03-03T18:43:21.239Z,5.53
2019-03-03T18:45:50.878Z,4.93
2019-03-03T18:48:20.497Z,4.33
2019-03-03T18:50:52.605Z,4.47
2019-03-03T18:53:22.222Z,4.90
2019-03-03T18:55:53.130Z,4.90
2019-03-03T18:58:22.791Z,5.40
2019-03-03T19:00:52.394Z,5.87
2019-03-03T19:03:22.757Z,5.70
2019-03-03T19:05:56.110Z,5.33
2019-03-03T19:08:24.470Z,5.40
2019-03-03T19:10:54.838Z,4.63
2019-03-03T19:13:24.665Z,4.83
2019-03-03T19:15:54.287Z,5.37
2019-03-03T19:18:23.967Z,4.47
2019-03-03T19:20:53.638Z,5.50
2019-03-03T19:23:23.263Z,4.77
2019-03-03T19:25:52.890Z,5.37
2019-03-03T19:28:22.529Z,6.07
2019-03-03T19:30:52.183Z,6.40
2019-03-03T19:33:28.067Z,5.83
2019-03-03T19:35:57.685Z,6.37
2019-03-03T19:38:27.291Z,6.43
2019-03-03T19:40:56.971Z,6.63
2019-03-03T19:43:28.026Z,7.17
2019-03-03T19:45:56.363Z,7.23
2019-03-03T19:48:26.042Z,7.57
2019-03-03T19:50:55.691Z,8.23
2019-03-03T19:53:27.757Z,9.47
2019-03-03T19:55:58.571Z,8.27
2019-03-03T19:58:29.510Z,8.67
2019-03-03T20:01:01.291Z,8.07
2019-03-03T20:03:30.937Z,7.83
2019-03-03T20:06:00.579Z,8.63
2019-03-03T20:08:31.034Z,8.50
2019-03-03T20:11:03.216Z,8.60
2019-03-03T20:13:32.889Z,8.23
2019-03-03T20:16:02.526Z,9.00
2019-03-03T20:18:32.421Z,8.33
2019-03-03T20:21:03.275Z,8.60
2019-03-03T20:23:32.988Z,8.87
2019-03-03T20:26:02.937Z,20.50
2019-03-03T20:28:32.984Z,9.53
2019-03-03T20:31:04.582Z,8.47
2019-03-03T20:33:34.367Z,10.43
2019-03-03T20:36:04.013Z,9.43
2019-03-03T20:38:33.849Z,9.23
2019-03-03T20:41:04.715Z,10.47
2019-03-03T20:43:34.363Z,9.30
2019-03-03T20:46:04.035Z,9.77
2019-03-03T20:48:34.838Z,9.97
2019-03-03T20:51:04.491Z,10.13
2019-03-03T20:53:34.182Z,8.70
2019-03-03T20:56:04.985Z,8.77
2019-03-03T20:58:34.646Z,8.37
2019-03-03T21:01:04.270Z,10.30
2019-03-03T21:03:36.492Z,10.57
2019-03-03T21:06:06.134Z,9.53
2019-03-03T21:08:35.823Z,8.87
2019-03-03T21:11:05.494Z,8.27
2019-03-03T21:13:36.373Z,8.20
2019-03-03T21:16:06.034Z,8.00
2019-03-03T21:18:37.005Z,9.83
2019-03-03T21:21:06.654Z,9.03
2019-03-03T21:23:36.339Z,6.93
2019-03-03T21:26:07.911Z,8.60
2019-03-03T21:28:37.562Z,7.77
2019-03-03T21:31:07.270Z,7.47
2019-03-03T21:33:36.922Z,7.37
2019-03-03T21:36:06.572Z,8.30
2019-03-03T21:38:36.208Z,7.30
2019-03-03T21:41:05.883Z,8.53
2019-03-03T21:43:35.551Z,7.60
2019-03-03T21:46:05.195Z,7.37
2019-03-03T21:48:36.015Z,7.70
2019-03-03T21:51:05.640Z,5.07
2019-03-03T21:53:35.307Z,4.50
2019-03-03T21:56:06.226Z,4.10
2019-03-03T21:58:35.968Z,2.70
2019-03-03T22:01:07.654Z,2.67
2019-03-03T22:03:35.328Z,2.77
2019-03-03T22:06:04.967Z,1.80
2019-03-03T22:08:34.636Z,1.73
2019-03-03T22:11:04.350Z,2.33
2019-03-03T22:13:33.979Z,1.90
2019-03-03T22:16:03.630Z,1.73
2019-03-03T22:18:34.469Z,1.87
2019-03-03T22:21:06.519Z,2.20
2019-03-03T22:23:36.248Z,2.13
2019-03-03T22:26:05.925Z,2.30
2019-03-03T22:28:36.427Z,3.20
2019-03-03T22:31:05.219Z,3.37
2019-03-03T22:33:34.906Z,3.27
2019-03-03T22:36:04.513Z,3.70
2019-03-03T22:38:34.128Z,4.53
2019-03-03T22:41:05.097Z,4.40
2019-03-03T22:43:34.708Z,4.00
2019-03-03T22:46:04.323Z,4.67
2019-03-03T22:48:33.973Z,4.17
2019-03-03T22:51:03.638Z,4.93
2019-03-03T22:53:33.285Z,5.40
2019-03-03T22:56:02.962Z,5.93
2019-03-03T22:58:33.811Z,6.77
2019-03-03T23:01:11.570Z,6.47
2019-03-03T23:03:46.609Z,6.43
2019-03-03T23:06:24.050Z,6.70
2019-03-03T23:11:12.445Z,7.00
2019-03-03T23:13:55.157Z,13.43
2019-03-03T23:16:46.853Z,10.10
2019-03-03T23:19:36.529Z,9.70
2019-03-03T23:23:13.098Z,10.00
2019-03-03T23:25:47.666Z,12.57
2019-03-03T23:28:21.862Z,12.77
2019-03-03T23:30:52.517Z,12.50
2019-03-03T23:33:22.188Z,10.23
2019-03-03T23:35:51.825Z,10.80
2019-03-03T23:38:21.454Z,10.07
2019-03-03T23:40:51.148Z,10.50
2019-03-03T23:43:20.794Z,9.77
2019-03-03T23:45:51.634Z,10.47
2019-03-03T23:48:21.272Z,8.70
2019-03-03T23:50:50.894Z,9.70
2019-03-03T23:53:20.524Z,10.80
2019-03-03T23:55:50.203Z,11.70
2019-03-03T23:58:19.827Z,10.20
